createdAt,value
2022-09-23T00:00:09.017Z,85.42
2022-09-23T00:02:59.594Z,85.54
2022-09-23T00:05:28.122Z,85.62
2022-09-23T00:07:57.229Z,85.54
2022-09-23T00:10:28.472Z,85.74
2022-09-23T00:12:57.060Z,85.90
2022-09-23T00:15:26.348Z,85.70
2022-09-23T00:17:54.857Z,85.59
2022-09-23T00:20:23.550Z,85.78
2022-09-23T00:22:53.249Z,85.84
2022-09-23T00:25:21.442Z,86.01
2022-09-23T00:27:50.835Z,86.25
2022-09-23T00:30:20.761Z,86.60
2022-09-23T00:32:49.022Z,86.48
2022-09-23T00:35:17.558Z,86.32
2022-09-23T00:37:45.882Z,86.27
2022-09-23T00:40:14.716Z,86.46
2022-09-23T00:42:48.220Z,86.65
2022-09-23T00:45:16.793Z,87.08
2022-09-23T00:47:49.011Z,86.89
2022-09-23T00:50:23.386Z,87.03
2022-09-23T00:52:54.244Z,87.11
2022-09-23T00:55:25.621Z,87.95
2022-09-23T00:57:56.530Z,87.61
2022-09-23T01:00:25.185Z,87.58
2022-09-23T01:02:54.809Z,87.38
2022-09-23T01:05:24.293Z,87.31
2022-09-23T01:07:53.983Z,87.19
2022-09-23T01:10:23.518Z,87.82
2022-09-23T01:13:02.124Z,87.65
2022-09-23T01:15:38.344Z,88.17
2022-09-23T01:18:12.178Z,87.90
2022-09-23T01:20:59.848Z,88.10
2022-09-23T01:23:52.496Z,88.12
2022-09-23T01:26:38.370Z,88.36
2022-09-23T01:29:35.514Z,88.13
2022-09-23T01:32:07.535Z,88.47
2022-09-23T01:34:41.588Z,89.11
2022-09-23T01:37:14.070Z,88.80
2022-09-23T01:39:45.091Z,88.62
2022-09-23T01:42:17.591Z,88.97
2022-09-23T01:44:48.714Z,89.19
2022-09-23T01:47:19.193Z,89.31
2022-09-23T01:49:53.340Z,89.51
2022-09-23T01:52:26.963Z,89.37
2022-09-23T01:55:10.454Z,90.09
2022-09-23T01:57:41.966Z,89.82
2022-09-23T02:00:14.005Z,89.82
2022-09-23T02:02:49.036Z,90.21
2022-09-23T02:05:21.168Z,90.11
2022-09-23T02:07:53.016Z,89.83
2022-09-23T02:10:24.685Z,89.78
2022-09-23T02:12:56.725Z,89.81
2022-09-23T02:15:28.619Z,89.71
2022-09-23T02:17:59.428Z,89.79
2022-09-23T02:20:31.110Z,89.80
2022-09-23T02:23:03.736Z,89.70
2022-09-23T02:25:39.531Z,89.28
2022-09-23T02:28:12.581Z,89.40
2022-09-23T02:30:48.604Z,89.43
2022-09-23T02:33:22.189Z,89.41
2022-09-23T02:35:54.137Z,89.33
2022-09-23T02:38:29.483Z,89.57
2022-09-23T02:41:04.102Z,89.86
2022-09-23T02:43:38.503Z,89.51
2022-09-23T02:46:07.444Z,89.35
2022-09-23T02:48:40.720Z,89.22
2022-09-23T02:51:09.427Z,89.26
2022-09-23T02:53:41.236Z,89.29
2022-09-23T02:56:16.270Z,89.36
2022-09-23T02:58:46.387Z,89.78
2022-09-23T03:01:21.452Z,89.65
2022-09-23T03:03:56.590Z,89.99
2022-09-23T03:06:29.486Z,90.19
2022-09-23T03:09:01.284Z,90.36
2022-09-23T03:11:32.398Z,90.43
2022-09-23T03:14:17.727Z,90.41
2022-09-23T03:16:50.944Z,90.47
2022-09-23T03:19:26.264Z,90.46
2022-09-23T03:22:00.962Z,90.46
2022-09-23T03:24:30.833Z,90.48
2022-09-23T03:27:02.527Z,90.72
2022-09-23T03:29:31.877Z,90.62
2022-09-23T03:32:00.323Z,90.60
2022-09-23T03:34:31.116Z,90.69
2022-09-23T03:37:05.875Z,90.71
2022-09-23T03:39:39.921Z,90.69
2022-09-23T03:42:12.233Z,90.91
2022-09-23T03:44:44.268Z,91.06
2022-09-23T03:47:13.975Z,90.88
2022-09-23T03:49:44.313Z,90.81
2022-09-23T03:52:12.648Z,90.80
2022-09-23T03:54:41.259Z,90.62
2022-09-23T03:57:10.973Z,90.71
2022-09-23T03:59:39.820Z,90.39
2022-09-23T04:02:08.596Z,90.51
2022-09-23T04:04:39.604Z,90.39
2022-09-23T04:07:08.292Z,90.34
2022-09-23T04:09:36.825Z,90.47
2022-09-23T04:12:06.291Z,90.26
2022-09-23T04:14:36.204Z,90.33
2022-09-23T04:17:07.502Z,90.00
2022-09-23T04:19:36.170Z,90.28
2022-09-23T04:22:05.177Z,90.27
2022-09-23T04:24:33.449Z,90.19
2022-09-23T04:27:01.992Z,90.23
2022-09-23T04:29:30.412Z,90.54
2022-09-23T04:31:58.876Z,90.21
2022-09-23T04:34:27.396Z,90.44
2022-09-23T04:36:55.758Z,90.47
2022-09-23T04:39:23.943Z,90.24
2022-09-23T04:41:52.092Z,90.22
2022-09-23T04:44:21.643Z,90.44
2022-09-23T04:46:49.939Z,90.11
2022-09-23T04:49:18.636Z,89.85
2022-09-23T04:51:47.375Z,90.04
2022-09-23T04:54:15.748Z,90.45
2022-09-23T04:56:44.122Z,90.59
2022-09-23T04:59:12.726Z,90.48
2022-09-23T05:01:41.827Z,90.56
2022-09-23T05:04:13.252Z,90.48
2022-09-23T05:06:44.596Z,90.24
2022-09-23T05:09:16.230Z,90.52
2022-09-23T05:11:45.039Z,90.25
2022-09-23T05:14:13.841Z,90.42
2022-09-23T05:16:42.564Z,90.56
2022-09-23T05:19:15.682Z,90.38
2022-09-23T05:21:44.937Z,90.39
2022-09-23T05:24:16.969Z,90.36
2022-09-23T05:26:46.128Z,90.43
2022-09-23T05:29:14.236Z,90.31
2022-09-23T05:31:42.474Z,90.45
2022-09-23T05:34:10.862Z,90.39
2022-09-23T05:36:39.388Z,90.47
2022-09-23T05:39:08.570Z,90.27
2022-09-23T05:41:37.807Z,90.74
2022-09-23T05:44:06.669Z,90.50
2022-09-23T05:46:35.833Z,90.73
2022-09-23T05:49:08.298Z,90.70
2022-09-23T05:51:36.939Z,90.79
2022-09-23T05:54:05.732Z,90.72
2022-09-23T05:56:35.052Z,90.60
2022-09-23T05:59:04.613Z,90.38
2022-09-23T06:01:36.006Z,90.23
2022-09-23T06:04:06.007Z,90.01
2022-09-23T06:06:36.395Z,90.03
2022-09-23T06:09:05.083Z,90.11
2022-09-23T06:11:35.438Z,90.11
2022-09-23T06:14:04.535Z,89.83
2022-09-23T06:16:34.954Z,89.69
2022-09-23T06:19:05.850Z,89.46
2022-09-23T06:21:37.560Z,89.41
2022-09-23T06:24:08.762Z,89.10
2022-09-23T06:26:37.942Z,88.90
2022-09-23T06:29:10.066Z,88.71
2022-09-23T06:31:41.471Z,88.52
2022-09-23T06:34:13.447Z,88.49
2022-09-23T06:36:45.487Z,88.36
2022-09-23T06:39:15.375Z,88.21
2022-09-23T06:41:44.158Z,87.91
2022-09-23T06:44:12.809Z,87.75
2022-09-23T06:46:41.382Z,87.55
2022-09-23T06:49:11.304Z,86.44
2022-09-23T06:51:39.691Z,86.22
2022-09-23T06:54:08.653Z,86.36
2022-09-23T06:56:39.460Z,86.41
2022-09-23T06:59:10.605Z,85.98
2022-09-23T07:01:43.065Z,86.23
2022-09-23T07:04:12.194Z,86.37
2022-09-23T07:06:41.375Z,86.26
2022-09-23T07:09:10.447Z,86.26
2022-09-23T07:11:39.744Z,85.66
2022-09-23T07:14:14.255Z,85.20
2022-09-23T07:16:42.742Z,84.92
2022-09-23T07:19:11.904Z,85.44
2022-09-23T07:21:40.110Z,84.84
2022-09-23T07:24:09.094Z,83.25
2022-09-23T07:26:38.110Z,83.08
2022-09-23T07:29:11.549Z,83.52
2022-09-23T07:31:40.489Z,83.65
2022-09-23T07:34:11.072Z,83.70
2022-09-23T07:36:40.337Z,84.17
2022-09-23T07:39:10.646Z,84.17
2022-09-23T07:41:39.052Z,83.85
2022-09-23T07:44:08.287Z,82.76
2022-09-23T07:46:36.799Z,80.12
2022-09-23T07:49:05.932Z,81.56
2022-09-23T07:51:36.997Z,82.36
2022-09-23T07:54:09.590Z,82.39
2022-09-23T07:56:38.733Z,82.56
2022-09-23T07:59:09.205Z,82.37
2022-09-23T08:01:41.675Z,80.82
2022-09-23T08:04:13.157Z,79.75
2022-09-23T08:06:45.017Z,74.40
2022-09-23T08:09:14.014Z,75.49
2022-09-23T08:11:42.418Z,75.62
2022-09-23T08:14:13.012Z,73.48
2022-09-23T08:16:41.527Z,72.15
2022-09-23T08:19:10.268Z,72.07
2022-09-23T08:21:40.153Z,72.69
2022-09-23T08:24:10.916Z,72.95
2022-09-23T08:26:40.178Z,69.53
2022-09-23T08:29:12.819Z,67.59
2022-09-23T08:31:41.659Z,65.40
2022-09-23T08:34:10.899Z,63.26
2022-09-23T08:36:39.631Z,65.07
2022-09-23T08:39:09.816Z,63.77
2022-09-23T08:41:46.751Z,63.87
2022-09-23T08:44:22.072Z,64.12
2022-09-23T08:46:54.468Z,64.01
2022-09-23T08:49:28.015Z,60.64
2022-09-23T08:51:58.121Z,61.56
2022-09-23T08:54:27.810Z,61.11
2022-09-23T08:56:58.203Z,62.36
2022-09-23T08:59:30.944Z,62.21
2022-09-23T09:02:00.619Z,61.26
2022-09-23T09:04:42.616Z,63.08
2022-09-23T09:10:11.054Z,63.22
2022-09-23T09:12:41.490Z,64.51
2022-09-23T09:15:14.215Z,61.37
2022-09-23T09:17:48.833Z,58.37
2022-09-23T09:20:24.424Z,61.31
2022-09-23T09:22:57.147Z,63.39
2022-09-23T09:25:46.243Z,58.03
2022-09-23T09:28:19.938Z,59.03
2022-09-23T09:30:52.548Z,57.81
2022-09-23T09:33:25.862Z,59.14
2022-09-23T09:36:12.623Z,57.39
2022-09-23T09:38:41.222Z,57.76
2022-09-23T09:41:14.086Z,57.04
2022-09-23T09:43:47.907Z,57.45
2022-09-23T09:46:22.323Z,54.46
2022-09-23T09:48:53.322Z,54.79
2022-09-23T09:51:23.172Z,54.02
2022-09-23T09:53:53.704Z,54.61
2022-09-23T09:56:26.766Z,52.77
2022-09-23T09:58:58.625Z,52.34
2022-09-23T10:01:28.973Z,49.71
2022-09-23T10:03:59.883Z,49.76
2022-09-23T10:06:30.660Z,52.32
2022-09-23T10:09:11.046Z,50.74
2022-09-23T10:11:40.518Z,48.24
2022-09-23T10:14:16.919Z,49.38
2022-09-23T10:16:46.966Z,50.10
2022-09-23T10:19:26.914Z,51.49
2022-09-23T10:21:59.293Z,48.42
2022-09-23T10:24:29.775Z,48.59
2022-09-23T10:27:00.855Z,47.26
2022-09-23T10:29:32.102Z,47.86
2022-09-23T10:32:25.224Z,47.09
2022-09-23T10:34:56.386Z,46.34
2022-09-23T10:37:31.344Z,48.50
2022-09-23T10:40:18.966Z,48.39
2022-09-23T10:43:21.355Z,48.14
2022-09-23T10:46:10.614Z,47.81
2022-09-23T10:48:48.848Z,48.46
2022-09-23T10:51:25.454Z,46.62
2022-09-23T10:53:58.089Z,46.30
2022-09-23T10:56:33.687Z,46.43
2022-09-23T10:59:32.528Z,47.23
2022-09-23T11:02:12.268Z,47.72
2022-09-23T11:05:04.560Z,47.45
2022-09-23T11:07:38.532Z,49.14
2022-09-23T11:10:29.072Z,47.61
2022-09-23T11:13:10.524Z,47.99
2022-09-23T11:15:48.794Z,46.28
2022-09-23T11:18:47.554Z,44.50
2022-09-23T11:21:31.621Z,43.81
2022-09-23T11:24:02.979Z,44.93
2022-09-23T11:26:40.876Z,45.74
2022-09-23T11:29:34.524Z,46.48
2022-09-23T11:32:13.878Z,45.58
2022-09-23T11:34:56.479Z,46.36
2022-09-23T11:37:26.369Z,45.11
2022-09-23T11:39:58.134Z,46.04
2022-09-23T11:42:29.316Z,46.90
2022-09-23T11:44:59.583Z,47.25
2022-09-23T11:47:32.851Z,48.13
2022-09-23T11:50:10.285Z,48.15
2022-09-23T11:52:42.239Z,46.40
2022-09-23T11:55:22.315Z,46.47
2022-09-23T11:57:54.187Z,45.66
2022-09-23T12:00:24.725Z,46.33
2022-09-23T12:03:06.268Z,46.92
2022-09-23T12:05:38.706Z,46.39
2022-09-23T12:08:13.017Z,47.39
2022-09-23T12:10:52.052Z,48.11
2022-09-23T12:13:24.599Z,49.11
2022-09-23T12:16:05.368Z,49.08
2022-09-23T12:18:42.577Z,49.55
2022-09-23T12:21:49.782Z,49.50
2022-09-23T12:24:32.163Z,48.11
2022-09-23T12:27:05.698Z,47.91
2022-09-23T12:29:36.100Z,47.67
2022-09-23T12:32:09.407Z,47.47
2022-09-23T12:34:43.697Z,47.72
2022-09-23T12:37:12.020Z,47.73
2022-09-23T12:39:41.911Z,48.02
2022-09-23T12:42:16.877Z,48.56
2022-09-23T12:44:47.151Z,49.03
2022-09-23T12:47:38.037Z,49.83
2022-09-23T12:50:46.999Z,50.23
2022-09-23T12:53:50.702Z,49.87
2022-09-23T12:56:20.329Z,49.61
2022-09-23T12:59:23.408Z,50.18
2022-09-23T13:01:55.298Z,48.29
2022-09-23T13:04:46.892Z,47.21
2022-09-23T13:07:17.131Z,47.92
2022-09-23T13:09:49.435Z,49.16
2022-09-23T13:12:21.243Z,49.57
2022-09-23T13:14:51.401Z,49.60
2022-09-23T13:17:30.425Z,49.09
2022-09-23T13:20:00.998Z,47.63
2022-09-23T13:22:56.677Z,47.80
2022-09-23T13:25:26.459Z,48.03
2022-09-23T13:28:00.584Z,46.78
2022-09-23T13:30:28.029Z,48.07
2022-09-23T13:33:05.342Z,47.51
2022-09-23T13:35:36.676Z,47.25
2022-09-23T13:38:11.633Z,47.65
2022-09-23T13:40:41.571Z,48.33
2022-09-23T13:43:14.507Z,48.88
2022-09-23T13:45:43.709Z,48.23
2022-09-23T13:48:14.811Z,48.77
2022-09-23T13:50:48.779Z,49.07
2022-09-23T13:53:22.538Z,49.14
2022-09-23T13:56:01.126Z,48.86
2022-09-23T13:58:31.207Z,49.35
2022-09-23T14:01:00.575Z,49.18
2022-09-23T14:03:35.922Z,48.45
2022-09-23T14:06:08.769Z,48.50
2022-09-23T14:08:39.183Z,48.96
2022-09-23T14:11:08.033Z,47.54
2022-09-23T14:13:41.658Z,47.52
2022-09-23T14:16:14.165Z,47.82
2022-09-23T14:18:44.864Z,48.49
2022-09-23T14:21:31.139Z,49.41
2022-09-23T14:24:08.115Z,49.46
2022-09-23T14:26:37.190Z,49.49
2022-09-23T14:29:08.448Z,49.46
2022-09-23T14:31:37.294Z,49.86
2022-09-23T14:34:14.338Z,49.07
2022-09-23T14:37:00.673Z,49.12
2022-09-23T14:39:29.602Z,50.25
2022-09-23T14:41:57.942Z,49.50
2022-09-23T14:44:27.630Z,50.11
2022-09-23T14:46:58.435Z,49.99
2022-09-23T14:49:27.142Z,49.66
2022-09-23T14:51:56.590Z,49.62
2022-09-23T14:54:33.050Z,50.03
2022-09-23T14:57:01.862Z,50.29
2022-09-23T14:59:34.083Z,50.41
2022-09-23T15:02:02.998Z,50.86
2022-09-23T15:04:34.397Z,50.25
2022-09-23T15:07:06.795Z,50.77
2022-09-23T15:09:38.309Z,50.63
2022-09-23T15:12:10.770Z,50.63
2022-09-23T15:14:41.640Z,50.75
2022-09-23T15:17:20.965Z,51.08
2022-09-23T15:19:52.132Z,51.75
2022-09-23T15:22:20.686Z,51.98
2022-09-23T15:24:52.009Z,52.14
2022-09-23T15:27:31.168Z,52.32
2022-09-23T15:30:14.083Z,51.90
2022-09-23T15:32:43.801Z,51.87
2022-09-23T15:35:16.354Z,52.23
2022-09-23T15:37:46.190Z,52.35
2022-09-23T15:40:21.148Z,52.31
2022-09-23T15:42:51.959Z,52.53
2022-09-23T15:45:21.722Z,52.42
2022-09-23T15:47:51.066Z,52.01
2022-09-23T15:50:19.713Z,52.29
2022-09-23T15:52:48.067Z,52.57
2022-09-23T15:55:17.473Z,52.88
2022-09-23T15:57:45.683Z,53.01
2022-09-23T16:00:15.550Z,53.24
2022-09-23T16:02:45.898Z,53.42
2022-09-23T16:05:18.731Z,53.58
2022-09-23T16:07:47.990Z,53.85
2022-09-23T16:10:16.718Z,54.27
2022-09-23T16:12:45.006Z,54.30
2022-09-23T16:15:15.120Z,54.58
2022-09-23T16:17:44.707Z,55.07
2022-09-23T16:20:16.273Z,55.16
2022-09-23T16:22:45.079Z,55.45
2022-09-23T16:25:13.775Z,55.98
2022-09-23T16:27:42.146Z,55.94
2022-09-23T16:30:12.405Z,56.13
2022-09-23T16:32:41.781Z,56.16
2022-09-23T16:35:18.604Z,56.41
2022-09-23T16:37:50.006Z,56.53
2022-09-23T16:40:21.489Z,56.86
2022-09-23T16:43:02.739Z,57.22
2022-09-23T16:45:34.294Z,57.44
2022-09-23T16:48:10.819Z,57.60
2022-09-23T16:50:42.261Z,57.71
2022-09-23T16:53:12.469Z,57.90
2022-09-23T16:56:00.118Z,58.12
2022-09-23T16:58:51.589Z,58.44
2022-09-23T17:02:04.498Z,58.51
2022-09-23T17:04:37.484Z,58.63
2022-09-23T17:09:55.832Z,58.99
2022-09-23T17:12:28.543Z,59.09
2022-09-23T17:15:00.128Z,59.29
2022-09-23T17:17:55.082Z,59.40
2022-09-23T17:20:25.323Z,59.62
2022-09-23T17:22:54.558Z,59.79
2022-09-23T17:25:23.057Z,60.11
2022-09-23T17:27:55.100Z,60.43
2022-09-23T17:30:25.475Z,60.72
2022-09-23T17:32:54.237Z,60.88
2022-09-23T17:35:23.771Z,61.15
2022-09-23T17:37:53.850Z,61.32
2022-09-23T17:40:25.576Z,61.47
2022-09-23T17:42:54.300Z,61.52
2022-09-23T17:45:22.833Z,61.77
2022-09-23T17:47:54.318Z,61.66
2022-09-23T17:50:25.504Z,61.90
2022-09-23T17:52:56.299Z,61.89
2022-09-23T17:55:29.238Z,62.10
2022-09-23T17:58:00.727Z,61.98
2022-09-23T18:00:29.795Z,62.01
2022-09-23T18:03:01.704Z,62.01
2022-09-23T18:05:32.331Z,62.14
2022-09-23T18:08:06.014Z,62.26
2022-09-23T18:10:41.878Z,62.38
2022-09-23T18:13:11.800Z,62.40
2022-09-23T18:15:40.983Z,62.55
2022-09-23T18:18:09.713Z,62.69
2022-09-23T18:20:38.649Z,62.66
2022-09-23T18:23:07.261Z,62.77
2022-09-23T18:25:39.553Z,62.82
2022-09-23T18:28:08.774Z,62.88
2022-09-23T18:30:37.839Z,63.08
2022-09-23T18:33:06.465Z,63.07
2022-09-23T18:35:35.531Z,63.26
2022-09-23T18:38:03.965Z,63.47
2022-09-23T18:40:33.902Z,63.68
2022-09-23T18:43:02.653Z,63.64
2022-09-23T18:45:31.590Z,63.73
2022-09-23T18:48:18.406Z,63.77
2022-09-23T18:50:48.798Z,63.70
2022-09-23T18:53:17.141Z,63.84
2022-09-23T18:55:45.436Z,63.88
2022-09-23T18:58:14.282Z,64.34
2022-09-23T19:00:42.606Z,64.06
2022-09-23T19:03:10.900Z,64.38
2022-09-23T19:05:39.254Z,64.43
2022-09-23T19:08:08.597Z,64.62
2022-09-23T19:10:36.857Z,64.74
2022-09-23T19:13:07.835Z,64.64
2022-09-23T19:15:36.190Z,64.75
2022-09-23T19:18:05.061Z,64.76
2022-09-23T19:20:33.684Z,64.78
2022-09-23T19:23:02.164Z,64.83
2022-09-23T19:25:30.538Z,64.88
2022-09-23T19:27:59.362Z,65.23
2022-09-23T19:30:27.697Z,65.30
2022-09-23T19:32:56.217Z,65.19
2022-09-23T19:35:24.825Z,65.56
2022-09-23T19:37:53.786Z,65.58
2022-09-23T19:40:22.192Z,65.77
2022-09-23T19:42:55.908Z,65.73
2022-09-23T19:45:24.650Z,65.99
2022-09-23T19:47:55.779Z,66.22
2022-09-23T19:50:25.091Z,66.29
2022-09-23T19:52:53.709Z,65.91
2022-09-23T19:55:28.240Z,66.26
2022-09-23T19:57:59.089Z,65.95
2022-09-23T20:00:27.711Z,66.28
2022-09-23T20:02:57.632Z,66.28
2022-09-23T20:05:27.864Z,66.18
2022-09-23T20:07:58.422Z,66.16
2022-09-23T20:10:26.873Z,66.33
2022-09-23T20:12:55.845Z,66.52
2022-09-23T20:15:24.554Z,66.39
2022-09-23T20:18:02.507Z,66.38
2022-09-23T20:20:31.351Z,66.69
2022-09-23T20:23:00.373Z,66.84
2022-09-23T20:25:51.854Z,66.98
2022-09-23T20:28:25.131Z,67.22
2022-09-23T20:30:58.675Z,67.18
2022-09-23T20:33:30.520Z,67.02
2022-09-23T20:36:00.364Z,67.44
2022-09-23T20:38:29.078Z,67.57
2022-09-23T20:40:58.358Z,67.49
2022-09-23T20:43:26.647Z,67.57
2022-09-23T20:46:01.601Z,67.63
2022-09-23T20:48:30.810Z,68.02
2022-09-23T20:51:02.425Z,68.23
2022-09-23T20:53:32.342Z,68.32
2022-09-23T20:56:05.500Z,68.46
2022-09-23T20:58:35.959Z,68.50
2022-09-23T21:01:10.146Z,68.66
2022-09-23T21:03:40.917Z,68.78
2022-09-23T21:06:13.391Z,68.98
2022-09-23T21:08:42.978Z,68.90
2022-09-23T21:11:12.994Z,68.81
2022-09-23T21:13:46.714Z,69.17
2022-09-23T21:16:17.143Z,69.30
2022-09-23T21:18:47.494Z,69.05
2022-09-23T21:21:21.586Z,69.43
2022-09-23T21:23:50.354Z,69.77
2022-09-23T21:26:20.695Z,69.75
2022-09-23T21:28:49.780Z,69.81
2022-09-23T21:31:22.806Z,69.95
2022-09-23T21:33:53.807Z,70.28
2022-09-23T21:36:24.004Z,70.17
2022-09-23T21:38:52.662Z,70.67
2022-09-23T21:41:21.722Z,70.73
2022-09-23T21:43:50.128Z,70.89
2022-09-23T21:46:20.018Z,70.98
2022-09-23T21:48:52.644Z,71.19
2022-09-23T21:51:23.471Z,71.46
2022-09-23T21:53:52.850Z,71.58
2022-09-23T21:56:23.520Z,71.56
2022-09-23T21:58:52.872Z,72.01
2022-09-23T22:01:22.757Z,72.19
2022-09-23T22:03:53.007Z,72.11
2022-09-23T22:06:22.972Z,72.48
2022-09-23T22:08:53.749Z,72.60
2022-09-23T22:11:41.485Z,72.49
2022-09-23T22:14:12.003Z,72.69
2022-09-23T22:16:41.140Z,72.88
2022-09-23T22:19:10.418Z,72.93
2022-09-23T22:21:39.857Z,73.31
2022-09-23T22:24:10.280Z,73.37
2022-09-23T22:26:40.197Z,73.30
2022-09-23T22:29:29.607Z,73.51
2022-09-23T22:32:22.483Z,73.53
2022-09-23T22:34:52.451Z,73.91
2022-09-23T22:37:25.845Z,73.91
2022-09-23T22:39:54.310Z,73.79
2022-09-23T22:42:23.160Z,73.85
2022-09-23T22:44:52.520Z,73.81
2022-09-23T22:47:21.181Z,74.12
2022-09-23T22:49:54.777Z,74.18
2022-09-23T22:52:24.691Z,74.40
2022-09-23T22:54:56.529Z,74.34
2022-09-23T22:57:28.453Z,74.43
2022-09-23T22:59:57.191Z,74.61
2022-09-23T23:02:25.737Z,74.71
2022-09-23T23:04:57.993Z,75.04
2022-09-23T23:07:26.653Z,75.30
2022-09-23T23:09:55.031Z,75.50
2022-09-23T23:12:23.808Z,75.64
2022-09-23T23:14:52.249Z,75.33
2022-09-23T23:17:21.200Z,75.59
2022-09-23T23:19:50.684Z,75.49
2022-09-23T23:22:18.976Z,75.60
2022-09-23T23:24:47.350Z,75.71
2022-09-23T23:27:15.634Z,75.72
2022-09-23T23:29:44.019Z,76.08
2022-09-23T23:32:12.594Z,76.05
2022-09-23T23:34:40.891Z,76.55
2022-09-23T23:37:09.440Z,76.52
2022-09-23T23:39:37.873Z,76.75
2022-09-23T23:42:06.525Z,76.74
2022-09-23T23:44:35.020Z,76.79
2022-09-23T23:47:03.929Z,76.80
2022-09-23T23:49:32.318Z,76.73
2022-09-23T23:52:01.409Z,76.96
2022-09-23T23:54:29.872Z,77.21
2022-09-23T23:56:58.188Z,77.23
2022-09-23T23:59:27.833Z,77.20
